Time;durP1;ratioP1;P1;durP2;ratioP2;P2;SDS_P1;SDS_P2;PMS_P1;PMS_P2;Temp;Humidity;BMP_temperature;BMP_pressure;BME280_temperature;BME280_humidity;BME280_pressure;Samples;Min_cycle;Max_cycle;Signal;HPM_P1;HPM_P2
2023/08/07 00:02:20;;;;;;;11.27;3.45;;;21.50;96.70;;;;;;5064240;28;20517;-76
2023/08/07 00:04:48;;;;;;;18.08;3.60;;;21.50;96.70;;;;;;5063811;28;20043;-76
2023/08/07 00:07:18;;;;;;;11.85;3.33;;;21.50;96.70;;;;;;5081146;28;20110;-78
2023/08/07 00:09:45;;;;;;;15.30;3.35;;;21.40;96.70;;;;;;5063925;28;20055;-76
2023/08/07 00:12:13;;;;;;;13.35;3.70;;;21.40;96.70;;;;;;5065267;28;20036;-76
2023/08/07 00:14:43;;;;;;;16.50;3.85;;;21.40;96.70;;;;;;5065217;28;20060;-76
2023/08/07 00:17:11;;;;;;;19.80;3.97;;;21.30;96.70;;;;;;5064098;28;20052;-76
2023/08/07 00:19:39;;;;;;;18.60;4.07;;;21.30;96.70;;;;;;5063558;28;20052;-77
2023/08/07 00:22:07;;;;;;;12.90;3.42;;;21.30;96.70;;;;;;5064262;28;20453;-77
2023/08/07 00:24:35;;;;;;;16.25;3.75;;;21.40;96.70;;;;;;5063799;28;20044;-77
2023/08/07 00:27:03;;;;;;;12.73;3.17;;;21.30;96.70;;;;;;5079447;28;20509;-77
2023/08/07 00:29:32;;;;;;;15.88;3.95;;;21.20;96.70;;;;;;5065359;28;20045;-79
2023/08/07 00:32:02;;;;;;;12.43;3.38;;;21.20;96.70;;;;;;5047479;28;20064;-77
2023/08/07 00:34:30;;;;;;;16.90;3.53;;;21.20;96.70;;;;;;5063932;28;20121;-77
2023/08/07 00:36:58;;;;;;;13.25;3.40;;;21.20;96.70;;;;;;5065855;28;20513;-76
2023/08/07 00:39:27;;;;;;;13.23;3.17;;;21.20;96.70;;;;;;5041121;28;20045;-77
2023/08/07 00:41:56;;;;;;;15.15;3.63;;;21.10;96.70;;;;;;5055487;28;20151;-77
2023/08/07 00:44:24;;;;;;;18.38;4.57;;;21.10;96.70;;;;;;5063704;28;20117;-77
2023/08/07 00:46:52;;;;;;;15.15;3.72;;;21.00;96.70;;;;;;5063229;28;20041;-76
2023/08/07 00:49:22;;;;;;;13.75;3.25;;;20.90;96.70;;;;;;5063458;28;20056;-76
2023/08/07 00:51:50;;;;;;;9.55;2.60;;;21.00;96.70;;;;;;5064040;28;20640;-77
2023/08/07 00:54:20;;;;;;;12.60;3.47;;;21.00;96.70;;;;;;5063046;28;20040;-76
2023/08/07 00:56:49;;;;;;;11.98;2.90;;;21.10;96.70;;;;;;5063548;28;20430;-76
2023/08/07 00:59:18;;;;;;;13.57;3.65;;;21.00;96.70;;;;;;5063078;28;20044;-76
2023/08/07 01:01:46;;;;;;;12.80;3.20;;;21.00;96.70;;;;;;5063614;28;20136;-77
2023/08/07 01:04:14;;;;;;;12.32;2.95;;;21.10;96.70;;;;;;5063110;28;20040;-76
2023/08/07 01:06:43;;;;;;;14.43;3.85;;;20.90;96.70;;;;;;5046436;28;20055;-76
2023/08/07 01:09:11;;;;;;;14.23;3.65;;;20.90;96.70;;;;;;5056725;28;20043;-77
2023/08/07 01:11:46;;;;;;;13.57;3.10;;;20.80;96.70;;;;;;5062390;28;20056;-76
2023/08/07 01:14:23;;;;;;;14.73;3.47;;;20.80;96.70;;;;;;5045384;28;20052;-77
2023/08/07 01:16:57;;;;;;;16.25;3.55;;;20.90;96.70;;;;;;5062318;28;20044;-77
2023/08/07 01:19:28;;;;;;;13.95;3.17;;;20.80;96.70;;;;;;5054473;28;20520;-77
2023/08/07 01:22:07;;;;;;;13.02;3.42;;;20.80;96.70;;;;;;5064664;28;20070;-76
2023/08/07 01:24:36;;;;;;;13.82;3.08;;;20.70;96.70;;;;;;5045983;28;20087;-76
2023/08/07 01:27:15;;;;;;;16.85;3.60;;;20.70;96.70;;;;;;5046255;28;20048;-76
2023/08/07 01:29:48;;;;;;;16.27;3.85;;;20.60;96.70;;;;;;5062228;28;20171;-76
2023/08/07 01:32:22;;;;;;;14.70;3.63;;;20.60;96.70;;;;;;5061866;28;20073;-76
2023/08/07 01:34:52;;;;;;;16.17;3.47;;;20.60;96.70;;;;;;5057201;28;20120;-76
2023/08/07 01:37:23;;;;;;;10.95;2.80;;;20.70;96.70;;;;;;5045240;28;20583;-77
2023/08/07 01:39:53;;;;;;;11.77;3.47;;;20.70;96.70;;;;;;5054456;28;20071;-76
2023/08/07 01:42:21;;;;;;;10.73;2.88;;;20.70;96.70;;;;;;5061560;28;20036;-76
2023/08/07 01:44:49;;;;;;;11.38;3.75;;;20.60;96.70;;;;;;5062416;28;20048;-76
2023/08/07 01:47:17;;;;;;;14.18;3.95;;;20.60;96.70;;;;;;5063763;28;20478;-77
2023/08/07 01:49:46;;;;;;;10.75;2.70;;;20.60;96.70;;;;;;5057522;28;20569;-77
2023/08/07 01:52:14;;;;;;;12.02;3.05;;;20.60;96.70;;;;;;5062353;28;20094;-76
2023/08/07 01:54:43;;;;;;;10.85;2.90;;;20.60;96.70;;;;;;5064787;28;20040;-76
2023/08/07 01:57:12;;;;;;;13.80;3.58;;;20.50;96.70;;;;;;5061138;28;20049;-76
2023/08/07 01:59:41;;;;;;;13.32;4.18;;;20.40;96.70;;;;;;5060835;28;20048;-76
2023/08/07 02:02:09;;;;;;;14.18;4.55;;;20.40;96.70;;;;;;5076642;28;20559;-76
2023/08/07 02:04:37;;;;;;;14.95;3.20;;;20.30;96.70;;;;;;5060357;28;20052;-76
2023/08/07 02:07:05;;;;;;;13.07;3.50;;;20.20;96.70;;;;;;5052662;28;20056;-76
2023/08/07 02:09:34;;;;;;;15.52;3.72;;;20.20;96.70;;;;;;5051925;28;20545;-76
2023/08/07 02:12:07;;;;;;;15.85;4.10;;;20.30;96.70;;;;;;5059007;28;20059;-76
2023/08/07 02:14:36;;;;;;;17.15;3.72;;;20.30;96.70;;;;;;5055699;28;20106;-76
2023/08/07 02:17:06;;;;;;;13.77;3.53;;;20.40;96.70;;;;;;5057435;28;20055;-76
2023/08/07 02:19:36;;;;;;;9.77;3.35;;;20.30;96.70;;;;;;5059668;28;20474;-76
2023/08/07 02:22:05;;;;;;;11.52;3.00;;;20.30;96.70;;;;;;5060160;28;20048;-77
2023/08/07 02:24:34;;;;;;;14.63;3.25;;;20.30;96.70;;;;;;5062953;28;20047;-76
2023/08/07 02:27:12;;;;;;;16.58;3.30;;;20.30;96.70;;;;;;5062608;28;20123;-77
2023/08/07 02:29:50;;;;;;;17.00;3.88;;;20.30;96.70;;;;;;5057711;28;20553;-77
2023/08/07 02:32:20;;;;;;;13.80;3.20;;;20.30;96.70;;;;;;5061593;28;20049;-76
2023/08/07 02:34:49;;;;;;;12.32;2.97;;;20.30;96.70;;;;;;5062521;28;20557;-76
2023/08/07 02:37:18;;;;;;;15.85;3.50;;;20.20;96.70;;;;;;5043766;28;20052;-76
2023/08/07 02:39:47;;;;;;;11.30;3.50;;;20.20;96.70;;;;;;5061004;28;20067;-76
2023/08/07 02:42:18;;;;;;;12.38;3.65;;;20.10;96.70;;;;;;5060475;28;20640;-76
2023/08/07 02:44:47;;;;;;;13.10;2.88;;;20.00;96.70;;;;;;5058013;28;20036;-77
2023/08/07 02:47:16;;;;;;;11.10;2.55;;;19.90;96.70;;;;;;5054204;28;20045;-76
2023/08/07 02:49:46;;;;;;;13.75;3.15;;;19.90;96.70;;;;;;5060852;28;20044;-76
2023/08/07 02:52:15;;;;;;;9.98;2.65;;;20.00;96.70;;;;;;5047076;28;20045;-76
2023/08/07 02:54:44;;;;;;;10.38;2.88;;;20.00;96.70;;;;;;5066369;28;20399;-76
2023/08/07 02:57:12;;;;;;;9.32;2.85;;;20.00;96.70;;;;;;5065691;28;20040;-75
2023/08/07 02:59:43;;;;;;;12.23;3.42;;;20.00;96.70;;;;;;5065451;28;20094;-76
2023/08/07 03:02:12;;;;;;;10.80;2.83;;;19.90;96.70;;;;;;5048581;28;20048;-77
2023/08/07 03:04:41;;;;;;;10.95;2.75;;;19.80;96.70;;;;;;5064889;28;20044;-76
2023/08/07 03:07:10;;;;;;;15.38;9.25;;;19.90;96.70;;;;;;5066722;28;20056;-76
2023/08/07 03:09:39;;;;;;;22.10;10.75;;;20.00;96.70;;;;;;5080809;28;20135;-76
2023/08/07 03:12:08;;;;;;;14.20;7.45;;;20.00;96.70;;;;;;5065470;28;20582;-76
2023/08/07 03:14:37;;;;;;;45.97;36.38;;;19.90;96.70;;;;;;5048292;28;20088;-76
2023/08/07 03:17:08;;;;;;;25.85;17.75;;;19.90;96.70;;;;;;5064611;28;20101;-76
2023/08/07 03:19:37;;;;;;;13.57;6.53;;;19.80;96.70;;;;;;5066622;28;21004;-76
2023/08/07 03:22:06;;;;;;;15.07;5.70;;;19.80;96.70;;;;;;5048682;28;20102;-76
2023/08/07 03:24:35;;;;;;;14.45;3.80;;;19.70;96.70;;;;;;5063175;28;20053;-76
2023/08/07 03:27:04;;;;;;;14.10;3.50;;;19.70;96.70;;;;;;5061919;28;20036;-75
2023/08/07 03:29:33;;;;;;;19.90;3.75;;;19.70;96.70;;;;;;5061705;28;20113;-76
2023/08/07 03:32:03;;;;;;;13.43;2.88;;;19.60;96.70;;;;;;5062652;28;20098;-76
2023/08/07 03:34:35;;;;;;;11.93;2.75;;;19.70;96.70;;;;;;5064727;28;20110;-76
2023/08/07 03:37:06;;;;;;;15.05;6.90;;;19.70;96.70;;;;;;5064985;28;20144;-76
2023/08/07 03:39:35;;;;;;;15.95;8.85;;;19.70;96.70;;;;;;5065921;28;20532;-77
2023/08/07 03:42:04;;;;;;;17.95;10.88;;;19.80;96.70;;;;;;5048380;28;20135;-76
2023/08/07 03:44:34;;;;;;;19.13;11.10;;;19.80;96.70;;;;;;5063412;28;20076;-76
2023/08/07 03:47:04;;;;;;;14.77;8.73;;;19.80;96.70;;;;;;5062116;28;20127;-76
2023/08/07 03:49:34;;;;;;;14.13;7.95;;;19.80;96.70;;;;;;5060495;28;20505;-75
2023/08/07 03:52:05;;;;;;;13.98;5.05;;;19.70;96.70;;;;;;5064532;28;20071;-76
2023/08/07 03:54:34;;;;;;;14.13;5.35;;;19.70;96.70;;;;;;5063052;28;20047;-76
2023/08/07 03:57:03;;;;;;;14.50;7.45;;;19.60;96.70;;;;;;5059006;28;20494;-76
2023/08/07 03:59:32;;;;;;;14.23;4.38;;;19.50;96.70;;;;;;5061408;28;20055;-78
2023/08/07 04:02:01;;;;;;;18.63;7.75;;;19.50;96.70;;;;;;5064467;28;20506;-76
2023/08/07 04:04:31;;;;;;;12.45;5.03;;;19.50;96.70;;;;;;5063232;28;20683;-76
2023/08/07 04:07:01;;;;;;;13.13;10.13;;;19.50;96.70;;;;;;5065472;28;20036;-77
2023/08/07 04:09:32;;;;;;;23.05;16.80;;;19.40;96.70;;;;;;5063474;28;20102;-76
2023/08/07 04:12:02;;;;;;;30.02;19.98;;;19.50;96.70;;;;;;5063616;28;20037;-76
2023/08/07 04:14:31;;;;;;;28.02;18.70;;;19.40;96.70;;;;;;5075293;28;20044;-76
2023/08/07 04:17:01;;;;;;;22.17;12.73;;;19.40;96.70;;;;;;5060541;28;20052;-76
2023/08/07 04:19:30;;;;;;;28.73;23.08;;;19.40;96.70;;;;;;5062107;28;20653;-74
2023/08/07 04:22:01;;;;;;;19.95;11.07;;;19.30;96.70;;;;;;5042568;28;20044;-74
2023/08/07 04:24:30;;;;;;;24.90;16.35;;;19.40;96.70;;;;;;5057420;28;20058;-76
2023/08/07 04:26:59;;;;;;;17.83;9.63;;;19.50;96.70;;;;;;5061405;28;20398;-76
2023/08/07 04:29:28;;;;;;;14.13;7.05;;;19.40;96.70;;;;;;5063425;28;20548;-76
2023/08/07 04:31:57;;;;;;;13.65;6.97;;;19.30;96.70;;;;;;5063568;28;20444;-76
2023/08/07 04:34:26;;;;;;;17.17;5.18;;;19.30;96.70;;;;;;5046240;28;20056;-80
2023/08/07 04:36:56;;;;;;;14.70;5.63;;;19.30;96.70;;;;;;5058247;28;20051;-77
2023/08/07 04:39:27;;;;;;;9.10;3.40;;;19.20;96.70;;;;;;5064063;28;20131;-78
2023/08/07 04:41:56;;;;;;;10.35;3.15;;;19.20;96.70;;;;;;5064240;28;20055;-78
2023/08/07 04:44:25;;;;;;;10.77;3.13;;;19.30;96.70;;;;;;5063278;28;20056;-77
2023/08/07 04:46:54;;;;;;;11.20;2.63;;;19.40;96.70;;;;;;5062880;28;20056;-76
2023/08/07 04:49:24;;;;;;;10.30;3.10;;;19.40;96.70;;;;;;5055552;28;20098;-77
2023/08/07 04:51:53;;;;;;;11.68;3.00;;;19.30;96.70;;;;;;5063814;28;20049;-77
2023/08/07 04:54:23;;;;;;;8.05;2.92;;;19.30;96.70;;;;;;5063804;28;20047;-77
2023/08/07 04:56:54;;;;;;;15.93;3.72;;;19.40;96.70;;;;;;5047715;28;20065;-77
2023/08/07 04:59:24;;;;;;;10.23;2.97;;;19.50;96.70;;;;;;5062827;28;20048;-77
2023/08/07 05:01:53;;;;;;;11.50;2.92;;;19.60;96.70;;;;;;5055741;28;20043;-78
2023/08/07 05:04:23;;;;;;;16.88;3.05;;;19.70;96.70;;;;;;5064404;28;20044;-77
2023/08/07 05:06:52;;;;;;;16.63;4.68;;;19.80;96.70;;;;;;5063709;28;20045;-77
2023/08/07 05:09:20;;;;;;;11.48;2.65;;;19.70;96.70;;;;;;5063745;28;20044;-77
2023/08/07 05:11:49;;;;;;;9.88;3.05;;;19.80;96.70;;;;;;5062681;28;20101;-77
2023/08/07 05:14:19;;;;;;;13.40;2.90;;;19.80;96.70;;;;;;5054400;28;20110;-77
2023/08/07 05:16:48;;;;;;;15.85;3.92;;;19.90;96.70;;;;;;5063527;28;20044;-76
2023/08/07 05:19:17;;;;;;;13.50;3.50;;;19.90;96.70;;;;;;5063490;28;20059;-80
2023/08/07 05:21:49;;;;;;;14.13;2.92;;;19.90;96.70;;;;;;5060530;28;20036;-76
2023/08/07 05:24:18;;;;;;;11.70;3.78;;;19.90;96.70;;;;;;5062061;28;20094;-80
2023/08/07 05:26:47;;;;;;;8.30;2.70;;;19.90;96.70;;;;;;5060992;28;20066;-78
2023/08/07 05:29:15;;;;;;;10.13;2.63;;;19.80;96.70;;;;;;5063923;28;20048;-78
2023/08/07 05:31:45;;;;;;;9.18;2.30;;;19.80;96.70;;;;;;5063465;28;20578;-80
2023/08/07 05:34:14;;;;;;;10.10;3.30;;;19.80;96.70;;;;;;5063938;28;20583;-79
2023/08/07 05:36:42;;;;;;;12.10;3.33;;;19.90;96.70;;;;;;5065159;28;20044;-78
2023/08/07 05:39:10;;;;;;;9.68;2.63;;;19.90;96.70;;;;;;5065095;28;20122;-79
2023/08/07 05:41:39;;;;;;;11.88;2.83;;;20.10;96.70;;;;;;5064528;28;20042;-81
2023/08/07 05:44:07;;;;;;;10.98;3.13;;;20.00;96.70;;;;;;5070944;28;20048;-82
2023/08/07 05:46:36;;;;;;;12.07;2.80;;;20.00;96.70;;;;;;5067486;28;20040;-80
2023/08/07 05:49:06;;;;;;;12.75;3.55;;;20.00;96.70;;;;;;5065581;28;20036;-80
2023/08/07 05:51:34;;;;;;;13.50;3.28;;;20.00;96.70;;;;;;5063655;28;20051;-80
2023/08/07 05:54:02;;;;;;;13.65;3.10;;;20.00;96.70;;;;;;5063256;28;20461;-79
2023/08/07 05:56:31;;;;;;;12.90;2.70;;;20.10;96.70;;;;;;5062175;28;20135;-77
2023/08/07 05:58:59;;;;;;;14.02;3.30;;;20.10;96.70;;;;;;5059752;28;20052;-74
2023/08/07 06:01:30;;;;;;;8.25;2.50;;;20.10;96.70;;;;;;5058869;28;20453;-73
2023/08/07 06:03:59;;;;;;;13.88;3.22;;;20.20;96.70;;;;;;5060462;28;20045;-74
2023/08/07 06:06:29;;;;;;;11.98;3.53;;;20.30;96.70;;;;;;5063628;28;20123;-74
2023/08/07 06:08:57;;;;;;;8.38;2.75;;;20.40;96.70;;;;;;5062333;28;20048;-73
2023/08/07 06:11:30;;;;;;;10.88;3.00;;;20.40;96.70;;;;;;5064239;28;20181;-73
2023/08/07 06:13:58;;;;;;;11.60;3.15;;;20.50;96.70;;;;;;5063109;28;20509;-73
2023/08/07 06:16:27;;;;;;;10.85;3.35;;;20.50;96.70;;;;;;5054997;28;20605;-73
2023/08/07 06:18:56;;;;;;;12.45;3.67;;;20.60;96.70;;;;;;5047577;28;20169;-73
2023/08/07 06:21:24;;;;;;;14.13;4.25;;;20.80;96.70;;;;;;5062277;28;20052;-72
2023/08/07 06:23:54;;;;;;;12.30;3.42;;;20.90;96.70;;;;;;5061455;28;20102;-73
2023/08/07 06:26:23;;;;;;;11.25;2.65;;;20.90;96.70;;;;;;5045660;28;20055;-72
2023/08/07 06:28:52;;;;;;;15.38;3.67;;;20.90;96.70;;;;;;5061544;28;20115;-72
2023/08/07 06:31:20;;;;;;;14.82;3.10;;;21.00;96.70;;;;;;5063538;28;20053;-73
2023/08/07 06:33:50;;;;;;;11.30;3.45;;;21.00;96.70;;;;;;5061858;28;20044;-73
2023/08/07 06:36:18;;;;;;;12.02;2.83;;;21.00;96.70;;;;;;5063169;28;20044;-72
2023/08/07 06:38:47;;;;;;;14.82;3.38;;;21.20;96.70;;;;;;5056815;28;20045;-72
2023/08/07 06:41:17;;;;;;;14.07;3.33;;;21.20;96.70;;;;;;5061816;28;20064;-72
2023/08/07 06:43:45;;;;;;;13.45;3.53;;;21.20;96.70;;;;;;5062727;28;20049;-72
2023/08/07 06:46:14;;;;;;;13.55;4.15;;;21.20;96.70;;;;;;5062112;28;20044;-73
2023/08/07 06:48:42;;;;;;;14.60;3.88;;;21.20;96.70;;;;;;5057166;28;20044;-73
2023/08/07 06:51:11;;;;;;;17.95;4.47;;;21.10;96.70;;;;;;5063717;28;20137;-73
2023/08/07 06:53:39;;;;;;;14.60;4.03;;;21.10;96.70;;;;;;5061940;28;20048;-74
2023/08/07 06:56:07;;;;;;;14.93;3.70;;;21.00;96.70;;;;;;5060931;28;20044;-72
2023/08/07 06:58:38;;;;;;;17.58;3.97;;;21.00;96.70;;;;;;5053325;28;20048;-73
2023/08/07 07:01:06;;;;;;;13.35;3.17;;;21.10;96.70;;;;;;5063452;28;20045;-73
2023/08/07 07:03:34;;;;;;;14.63;4.10;;;21.20;96.70;;;;;;5062855;28;20047;-74
2023/08/07 07:06:03;;;;;;;18.02;3.25;;;21.20;96.70;;;;;;5063136;28;20052;-73
2023/08/07 07:08:31;;;;;;;14.50;4.07;;;21.20;96.70;;;;;;5061597;28;20573;-73
2023/08/07 07:11:00;;;;;;;13.50;3.05;;;21.30;96.70;;;;;;5044385;28;20071;-73
2023/08/07 07:13:29;;;;;;;16.05;3.90;;;21.40;96.70;;;;;;5057130;28;20529;-74
2023/08/07 07:15:59;;;;;;;11.45;2.92;;;21.50;96.70;;;;;;5061588;28;20132;-73
2023/08/07 07:18:28;;;;;;;13.63;3.15;;;21.50;96.70;;;;;;5061303;28;20589;-73
2023/08/07 07:21:00;;;;;;;19.30;6.47;;;21.60;96.70;;;;;;5063275;28;20044;-73
2023/08/07 07:23:29;;;;;;;16.90;3.85;;;21.70;96.70;;;;;;5061342;28;20097;-73
2023/08/07 07:25:57;;;;;;;14.70;3.83;;;21.80;96.70;;;;;;5061707;28;20037;-72
2023/08/07 07:28:26;;;;;;;15.20;3.20;;;21.90;96.70;;;;;;5062974;28;20393;-73
2023/08/07 07:30:54;;;;;;;17.33;3.78;;;21.90;96.70;;;;;;5062854;28;20172;-73
2023/08/07 07:33:25;;;;;;;12.98;3.60;;;22.00;96.70;;;;;;5063061;28;20072;-72
2023/08/07 07:35:53;;;;;;;12.02;3.03;;;22.00;96.70;;;;;;5063993;28;20420;-73
2023/08/07 07:38:22;;;;;;;16.45;3.38;;;22.20;96.70;;;;;;5066503;28;20048;-74
2023/08/07 07:40:50;;;;;;;14.52;3.50;;;22.30;96.70;;;;;;5065199;28;20498;-74
2023/08/07 07:43:19;;;;;;;22.17;7.78;;;22.30;96.70;;;;;;5064363;28;20059;-73
2023/08/07 07:45:47;;;;;;;19.95;6.00;;;22.40;96.70;;;;;;5049094;28;20049;-73
2023/08/07 07:48:16;;;;;;;14.23;3.30;;;22.50;96.70;;;;;;5063804;28;20040;-73
2023/08/07 07:50:46;;;;;;;14.35;3.55;;;22.50;96.70;;;;;;5056566;28;20102;-73
2023/08/07 07:53:15;;;;;;;19.80;12.55;;;22.50;96.70;;;;;;5066245;28;20106;-73
2023/08/07 07:55:47;;;;;;;17.27;4.60;;;22.60;96.70;;;;;;5060371;28;20069;-74
2023/08/07 07:58:16;;;;;;;14.75;5.35;;;22.60;96.70;;;;;;5064451;28;20094;-73
2023/08/07 08:00:44;;;;;;;16.17;5.35;;;22.70;96.70;;;;;;5064004;28;20529;-73
2023/08/07 08:03:13;;;;;;;13.75;3.88;;;22.80;96.70;;;;;;5066216;28;20048;-73
2023/08/07 08:05:42;;;;;;;16.75;4.72;;;22.80;96.70;;;;;;5063795;28;20075;-74
2023/08/07 08:08:12;;;;;;;20.27;4.53;;;22.90;96.70;;;;;;5079080;28;20123;-73
2023/08/07 08:10:41;;;;;;;21.58;4.35;;;22.90;96.70;;;;;;5063390;28;20040;-73
2023/08/07 08:13:10;;;;;;;15.50;3.90;;;23.00;96.70;;;;;;5065680;28;20054;-74
2023/08/07 08:15:39;;;;;;;15.13;4.45;;;23.00;96.70;;;;;;5064243;28;20526;-73
2023/08/07 08:18:08;;;;;;;21.45;4.15;;;23.00;96.70;;;;;;5064802;28;20098;-73
2023/08/07 08:20:37;;;;;;;18.13;4.30;;;23.10;96.70;;;;;;5064314;28;20091;-73
2023/08/07 08:23:06;;;;;;;15.63;4.10;;;23.20;96.70;;;;;;5065779;28;20135;-73
2023/08/07 08:25:36;;;;;;;15.27;4.50;;;23.20;96.70;;;;;;5044117;28;20504;-74
2023/08/07 08:28:05;;;;;;;21.63;11.48;;;23.10;96.70;;;;;;5063873;28;20040;-73
2023/08/07 08:30:33;;;;;;;16.33;4.75;;;23.20;96.70;;;;;;5047395;28;20056;-73
2023/08/07 08:33:02;;;;;;;17.15;3.78;;;23.20;96.70;;;;;;5065268;28;20043;-73
2023/08/07 08:35:31;;;;;;;12.98;3.90;;;23.30;96.70;;;;;;5043809;28;20045;-73
2023/08/07 08:38:00;;;;;;;16.92;5.00;;;23.40;96.70;;;;;;5064066;28;20040;-73
2023/08/07 08:40:28;;;;;;;10.68;3.42;;;23.50;96.70;;;;;;5065314;28;20040;-72
2023/08/07 08:43:00;;;;;;;13.68;3.53;;;23.60;96.70;;;;;;5064677;28;20651;-74
2023/08/07 08:45:38;;;;;;;17.85;3.58;;;23.70;96.70;;;;;;5065380;28;20450;-73
2023/08/07 08:48:10;;;;;;;14.02;3.53;;;23.80;96.70;;;;;;5064520;28;20516;-73
2023/08/07 08:50:40;;;;;;;15.07;4.32;;;23.80;96.70;;;;;;5065196;28;20048;-74
2023/08/07 08:53:09;;;;;;;18.70;4.57;;;23.90;96.70;;;;;;5064536;28;20067;-74
2023/08/07 08:55:42;;;;;;;16.33;4.07;;;24.00;96.70;;;;;;5057523;28;20520;-73
2023/08/07 08:58:15;;;;;;;31.58;5.80;;;24.10;96.70;;;;;;5063365;28;20449;-73
2023/08/07 09:00:46;;;;;;;19.98;4.20;;;24.30;96.70;;;;;;5065236;28;20075;-72
2023/08/07 09:03:14;;;;;;;17.77;3.67;;;24.30;96.70;;;;;;5063147;28;20125;-73
2023/08/07 09:05:43;;;;;;;11.73;3.67;;;24.30;96.70;;;;;;5062279;28;20045;-74
2023/08/07 09:08:12;;;;;;;16.05;3.75;;;24.40;96.70;;;;;;5065137;28;20528;-74
2023/08/07 09:10:41;;;;;;;13.77;2.67;;;24.30;96.70;;;;;;5065026;28;20041;-73
2023/08/07 09:13:16;;;;;;;15.18;4.07;;;24.40;96.70;;;;;;5064418;28;20691;-74
2023/08/07 09:15:50;;;;;;;14.40;3.45;;;24.30;96.70;;;;;;5062912;28;20059;-73
2023/08/07 09:18:20;;;;;;;13.18;3.33;;;24.20;96.70;;;;;;5054479;28;20617;-72
2023/08/07 09:20:49;;;;;;;16.90;3.08;;;24.30;96.70;;;;;;5046284;28;20056;-74
2023/08/07 09:23:17;;;;;;;15.55;3.17;;;24.30;96.70;;;;;;5042348;28;20052;-72
2023/08/07 09:25:46;;;;;;;12.30;3.10;;;24.40;96.70;;;;;;5062966;28;20556;-73
2023/08/07 09:28:16;;;;;;;12.25;3.00;;;24.50;96.70;;;;;;5063567;28;20067;-73
2023/08/07 09:30:45;;;;;;;13.55;4.28;;;24.50;96.70;;;;;;5062815;28;20048;-74
2023/08/07 09:33:14;;;;;;;12.15;3.28;;;24.70;96.70;;;;;;5062745;28;20052;-73
2023/08/07 09:35:42;;;;;;;13.23;3.17;;;24.80;96.70;;;;;;5064536;28;20040;-73
2023/08/07 09:38:11;;;;;;;17.08;3.30;;;24.80;96.70;;;;;;5062795;28;20075;-74
2023/08/07 09:40:42;;;;;;;13.82;3.53;;;24.80;96.70;;;;;;5062523;28;20577;-74
2023/08/07 09:43:20;;;;;;;8.48;2.42;;;25.00;96.70;;;;;;5063506;28;20131;-73
2023/08/07 09:45:50;;;;;;;9.57;2.47;;;24.90;96.70;;;;;;5063942;28;20486;-73
2023/08/07 09:48:27;;;;;;;11.00;2.70;;;25.10;96.70;;;;;;5060025;28;20052;-72
2023/08/07 09:51:00;;;;;;;11.25;3.00;;;25.30;96.70;;;;;;5063559;28;20057;-73
2023/08/07 09:53:30;;;;;;;9.80;2.58;;;25.50;96.70;;;;;;5045036;28;20072;-73
2023/08/07 09:56:00;;;;;;;10.30;1.85;;;25.50;96.70;;;;;;5062302;28;20063;-74
2023/08/07 09:58:29;;;;;;;8.93;2.47;;;25.60;96.70;;;;;;5061402;28;20072;-73
2023/08/07 10:01:02;;;;;;;9.05;2.13;;;25.50;96.70;;;;;;5060276;28;20087;-73
2023/08/07 10:03:32;;;;;;;9.63;2.45;;;25.80;96.70;;;;;;5078600;28;20059;-73
2023/08/07 10:06:01;;;;;;;4.78;1.60;;;25.90;96.70;;;;;;5062198;28;20056;-73
2023/08/07 10:08:30;;;;;;;8.38;1.80;;;26.00;96.70;;;;;;5063719;28;20090;-73
2023/08/07 10:11:00;;;;;;;4.82;1.55;;;26.20;96.70;;;;;;5062520;28;20057;-73
2023/08/07 10:13:30;;;;;;;5.78;1.40;;;26.20;96.70;;;;;;5062664;28;20064;-73
2023/08/07 10:16:08;;;;;;;6.75;1.30;;;26.30;96.70;;;;;;5060108;28;20049;-73
2023/08/07 10:18:37;;;;;;;6.57;1.50;;;26.40;96.70;;;;;;5063310;28;20040;-73
2023/08/07 10:21:06;;;;;;;6.95;1.65;;;26.60;96.70;;;;;;5063797;28;20049;-73
2023/08/07 10:23:39;;;;;;;3.97;1.17;;;26.80;96.70;;;;;;5063679;28;20055;-73
2023/08/07 10:26:09;;;;;;;7.72;1.48;;;26.80;96.70;;;;;;5063452;28;20662;-73
2023/08/07 10:28:40;;;;;;;4.32;1.05;;;26.80;96.70;;;;;;5037399;28;21295;-73
2023/08/07 10:31:13;;;;;;;6.00;1.60;;;26.90;96.70;;;;;;5062114;28;20057;-73
2023/08/07 10:33:43;;;;;;;5.82;1.45;;;26.90;96.70;;;;;;5059659;28;20049;-73
2023/08/07 10:36:12;;;;;;;8.55;1.77;;;27.00;96.70;;;;;;5062100;28;20502;-73
2023/08/07 10:38:41;;;;;;;3.65;1.50;;;27.20;96.70;;;;;;5061929;28;20090;-72
2023/08/07 10:41:12;;;;;;;5.22;1.45;;;27.30;96.70;;;;;;5063787;28;21272;-73
2023/08/07 10:43:42;;;;;;;5.45;1.17;;;27.30;96.70;;;;;;5061674;28;20048;-73
2023/08/07 10:46:15;;;;;;;5.32;1.48;;;27.40;96.70;;;;;;5064168;28;20039;-73
2023/08/07 10:48:47;;;;;;;4.22;1.40;;;27.40;96.70;;;;;;5061867;28;20816;-73
2023/08/07 10:51:17;;;;;;;6.07;1.48;;;27.60;96.70;;;;;;5045238;28;20052;-73
2023/08/07 10:53:47;;;;;;;4.88;1.35;;;27.70;96.70;;;;;;5061658;28;20490;-73
2023/08/07 10:56:17;;;;;;;4.47;1.17;;;27.80;96.70;;;;;;5063335;28;20094;-73
2023/08/07 10:58:53;;;;;;;2.58;0.80;;;27.80;96.70;;;;;;5060537;28;20052;-73
2023/08/07 11:01:39;;;;;;;2.97;1.13;;;27.90;96.70;;;;;;5063694;28;20051;-74
2023/08/07 11:04:10;;;;;;;3.10;0.82;;;28.00;96.70;;;;;;5053459;28;20290;-74
2023/08/07 11:06:40;;;;;;;2.85;1.00;;;28.10;96.70;;;;;;5063878;28;20045;-74
2023/08/07 11:09:10;;;;;;;4.68;1.10;;;28.10;96.70;;;;;;5063779;28;20458;-73
2023/08/07 11:11:39;;;;;;;2.60;1.00;;;28.20;96.70;;;;;;5049130;28;20616;-72
2023/08/07 11:14:10;;;;;;;5.63;1.17;;;28.20;96.70;;;;;;5048574;28;20526;-73
2023/08/07 11:16:40;;;;;;;4.82;1.20;;;28.30;96.70;;;;;;5067885;28;20051;-73
2023/08/07 11:19:09;;;;;;;7.97;1.38;;;28.50;96.70;;;;;;5049057;28;20064;-73
2023/08/07 11:21:38;;;;;;;5.82;1.65;;;28.70;96.70;;;;;;5065235;28;20059;-73
2023/08/07 11:24:07;;;;;;;3.05;1.00;;;28.80;96.70;;;;;;5065423;28;20041;-73
2023/08/07 11:26:35;;;;;;;3.53;0.82;;;28.80;96.70;;;;;;5062404;28;20072;-73
2023/08/07 11:29:05;;;;;;;3.42;0.95;;;28.80;96.70;;;;;;5066171;28;20045;-73
2023/08/07 11:31:33;;;;;;;3.83;1.02;;;28.90;96.70;;;;;;5048865;28;20106;-74
2023/08/07 11:34:03;;;;;;;4.45;0.98;;;29.00;96.70;;;;;;5048531;28;20494;-72
2023/08/07 11:36:33;;;;;;;3.38;0.98;;;29.20;96.70;;;;;;5072353;28;20577;-73
2023/08/07 11:39:03;;;;;;;4.97;1.08;;;29.30;96.70;;;;;;5064290;28;20078;-73
2023/08/07 11:41:32;;;;;;;3.33;1.02;;;29.50;96.70;;;;;;5065306;28;20080;-73
2023/08/07 11:44:01;;;;;;;3.42;1.17;;;29.70;96.70;;;;;;5064341;28;20119;-73
2023/08/07 11:46:30;;;;;;;2.97;1.02;;;29.70;96.70;;;;;;5067039;28;20048;-73
2023/08/07 11:48:58;;;;;;;3.90;1.20;;;29.90;96.70;;;;;;5064553;28;20044;-74
2023/08/07 11:51:29;;;;;;;2.35;1.08;;;29.70;96.70;;;;;;5048077;28;20044;-73
2023/08/07 11:53:59;;;;;;;5.00;1.50;;;29.80;96.70;;;;;;5034122;28;20430;-73
2023/08/07 11:56:29;;;;;;;3.50;0.90;;;30.00;96.70;;;;;;5075097;28;20040;-74
2023/08/07 11:58:58;;;;;;;3.25;1.05;;;29.90;96.70;;;;;;5047951;28;20044;-73
2023/08/07 12:01:27;;;;;;;4.03;1.08;;;30.00;96.70;;;;;;5066422;28;20494;-73
2023/08/07 12:03:57;;;;;;;2.78;0.70;;;30.20;96.70;;;;;;5063600;28;20052;-73
2023/08/07 12:06:26;;;;;;;3.28;1.00;;;30.10;93.90;;;;;;5064708;28;20048;-73
2023/08/07 12:08:57;;;;;;;4.55;1.20;;;30.00;94.10;;;;;;5064519;28;20106;-74
2023/08/07 12:11:25;;;;;;;5.53;1.23;;;30.10;94.40;;;;;;5066201;28;20055;-74
2023/08/07 12:13:53;;;;;;;6.00;1.45;;;30.30;95.90;;;;;;5066329;28;20052;-73
2023/08/07 12:16:22;;;;;;;2.88;1.08;;;30.20;95.90;;;;;;5065620;28;20048;-73
2023/08/07 12:18:51;;;;;;;3.45;1.27;;;30.10;95.30;;;;;;5063960;28;20036;-73
2023/08/07 12:21:23;;;;;;;3.90;1.25;;;30.20;96.20;;;;;;5047138;28;20791;-73
2023/08/07 12:23:57;;;;;;;3.55;1.00;;;30.10;96.30;;;;;;5065275;28;20090;-74
2023/08/07 12:26:25;;;;;;;4.03;1.00;;;30.20;96.60;;;;;;5064162;28;20072;-74
2023/08/07 12:28:54;;;;;;;2.92;0.93;;;30.20;96.20;;;;;;5065041;28;20064;-74
2023/08/07 12:31:22;;;;;;;6.45;1.45;;;30.40;96.70;;;;;;5055881;28;20048;-74
2023/08/07 12:33:50;;;;;;;7.32;1.35;;;30.50;96.70;;;;;;5065636;28;20044;-74
2023/08/07 12:36:20;;;;;;;8.43;1.75;;;30.60;96.70;;;;;;5065140;28;20041;-74
2023/08/07 12:38:48;;;;;;;5.38;1.48;;;30.60;96.70;;;;;;5065423;28;20546;-73
2023/08/07 12:41:17;;;;;;;5.57;1.25;;;30.60;96.70;;;;;;5064403;28;20053;-73
2023/08/07 12:43:48;;;;;;;5.20;1.52;;;30.50;96.70;;;;;;5064948;28;20072;-74
2023/08/07 12:46:17;;;;;;;5.55;1.35;;;30.60;96.70;;;;;;5065735;28;20045;-73
2023/08/07 12:48:47;;;;;;;6.22;1.60;;;30.60;96.70;;;;;;5063630;28;20568;-74
2023/08/07 12:51:16;;;;;;;3.78;0.95;;;30.60;96.70;;;;;;5064731;28;20182;-73